createdAt,value
2018-02-12T00:00:30.355Z,37.83
2018-02-12T00:02:58.631Z,42.67
2018-02-12T00:05:27.179Z,42.10
2018-02-12T00:07:54.723Z,42.93
2018-02-12T00:10:22.519Z,40.27
2018-02-12T00:12:50.145Z,39.97
2018-02-12T00:15:19.246Z,39.30
2018-02-12T00:17:49.244Z,38.13
2018-02-12T00:20:17.003Z,41.23
2018-02-12T00:22:45.531Z,43.50
2018-02-12T00:25:13.620Z,32.17
2018-02-12T00:27:41.779Z,35.03
2018-02-12T00:30:09.263Z,38.90
2018-02-12T00:32:37.607Z,40.87
2018-02-12T00:35:05.075Z,32.80
2018-02-12T00:37:32.548Z,38.33
2018-02-12T00:40:00.052Z,41.20
2018-02-12T00:42:27.544Z,34.33
2018-02-12T00:44:55.016Z,36.43
2018-02-12T00:47:22.520Z,37.70
2018-02-12T00:49:50.763Z,37.87
2018-02-12T00:52:18.244Z,37.63
2018-02-12T00:54:46.511Z,37.80
2018-02-12T00:57:16.120Z,34.63
2018-02-12T00:59:43.588Z,37.67
2018-02-12T01:02:12.012Z,44.17
2018-02-12T01:04:39.484Z,39.43
2018-02-12T01:07:06.960Z,38.50
2018-02-12T01:09:34.478Z,42.57
2018-02-12T01:12:03.087Z,40.50
2018-02-12T01:14:30.581Z,32.23
2018-02-12T01:16:58.079Z,36.77
2018-02-12T01:19:25.568Z,49.37
2018-02-12T01:21:53.081Z,36.03
2018-02-12T01:24:21.333Z,36.73
2018-02-12T01:26:49.576Z,35.03
2018-02-12T01:29:17.080Z,41.43
2018-02-12T01:31:45.331Z,34.13
2018-02-12T01:34:12.813Z,39.03
2018-02-12T01:36:41.132Z,36.20
2018-02-12T01:39:12.137Z,37.50
2018-02-12T01:41:47.623Z,46.53
2018-02-12T01:44:15.791Z,44.20
2018-02-12T01:46:45.044Z,41.57
2018-02-12T01:49:12.629Z,42.03
2018-02-12T01:51:41.443Z,40.00
2018-02-12T01:54:09.349Z,42.70
2018-02-12T01:56:36.817Z,46.27
2018-02-12T01:59:04.673Z,42.30
2018-02-12T02:01:39.093Z,43.13
2018-02-12T02:04:07.203Z,41.23
2018-02-12T02:06:35.611Z,37.57
2018-02-12T02:09:03.364Z,38.57
2018-02-12T02:11:31.002Z,37.83
2018-02-12T02:13:59.468Z,43.40
2018-02-12T02:16:26.959Z,40.33
2018-02-12T02:18:55.232Z,44.57
2018-02-12T02:21:24.272Z,41.03
2018-02-12T02:23:52.168Z,39.43
2018-02-12T02:26:20.584Z,32.67
2018-02-12T02:28:48.346Z,31.07
2018-02-12T02:31:16.677Z,33.00
2018-02-12T02:33:44.591Z,32.47
2018-02-12T02:36:13.084Z,37.33
2018-02-12T02:38:40.992Z,36.47
2018-02-12T02:41:08.969Z,32.77
2018-02-12T02:43:36.944Z,39.80
2018-02-12T02:46:04.633Z,37.60
2018-02-12T02:48:33.388Z,30.73
2018-02-12T02:51:01.092Z,29.43
2018-02-12T02:53:29.328Z,39.80
2018-02-12T02:55:58.323Z,35.77
2018-02-12T02:58:26.541Z,29.20
2018-02-12T03:00:55.366Z,29.10
2018-02-12T03:03:22.836Z,27.70
2018-02-12T03:05:50.366Z,31.70
2018-02-12T03:08:17.854Z,33.73
2018-02-12T03:10:45.326Z,34.33
2018-02-12T03:13:12.845Z,30.90
2018-02-12T03:15:40.314Z,34.20
2018-02-12T03:18:07.836Z,35.23
2018-02-12T03:20:36.081Z,44.33
2018-02-12T03:23:03.562Z,40.60
2018-02-12T03:25:31.051Z,38.10
2018-02-12T03:27:59.290Z,39.23
2018-02-12T03:30:26.856Z,43.37
2018-02-12T03:32:55.496Z,40.83
2018-02-12T03:35:22.974Z,37.43
2018-02-12T03:37:50.488Z,45.67
2018-02-12T03:40:18.727Z,44.00
2018-02-12T03:42:46.204Z,50.33
2018-02-12T03:45:14.820Z,44.10
2018-02-12T03:47:42.325Z,36.93
2018-02-12T03:50:09.836Z,36.97
2018-02-12T03:52:37.319Z,35.60
2018-02-12T03:55:04.800Z,33.23
2018-02-12T03:57:32.326Z,40.33
2018-02-12T03:59:59.805Z,30.97
2018-02-12T04:02:27.279Z,31.57
2018-02-12T04:04:54.792Z,38.43
2018-02-12T04:07:22.292Z,35.40
2018-02-12T04:09:49.763Z,36.67
2018-02-12T04:12:17.300Z,35.80
2018-02-12T04:14:44.782Z,35.67
2018-02-12T04:17:12.264Z,36.63
2018-02-12T04:19:40.584Z,32.43
2018-02-12T04:22:08.064Z,35.97
2018-02-12T04:24:35.537Z,36.80
2018-02-12T04:27:03.024Z,34.17
2018-02-12T04:29:31.259Z,36.07
2018-02-12T04:31:58.760Z,39.37
2018-02-12T04:34:27.375Z,40.87
2018-02-12T04:36:54.851Z,49.23
2018-02-12T04:39:22.353Z,43.00
2018-02-12T04:41:50.598Z,39.77
2018-02-12T04:44:18.067Z,44.50
2018-02-12T04:46:45.564Z,49.13
2018-02-12T04:49:14.918Z,46.67
2018-02-12T04:51:42.436Z,43.63
2018-02-12T04:54:09.914Z,52.10
2018-02-12T04:56:37.389Z,53.23
2018-02-12T04:59:04.924Z,42.73
2018-02-12T05:01:32.408Z,49.40
2018-02-12T05:03:59.885Z,45.77
2018-02-12T05:06:28.511Z,40.03
2018-02-12T05:08:57.639Z,47.53
2018-02-12T05:11:25.147Z,53.70
2018-02-12T05:13:53.396Z,46.50
2018-02-12T05:16:20.893Z,48.83
2018-02-12T05:18:49.164Z,48.60
2018-02-12T05:21:17.410Z,50.10
2018-02-12T05:23:44.920Z,50.63
2018-02-12T05:26:12.434Z,46.50
2018-02-12T05:28:39.908Z,51.47
2018-02-12T05:31:07.385Z,57.33
2018-02-12T05:33:35.664Z,49.70
2018-02-12T05:36:03.899Z,53.10
2018-02-12T05:38:33.022Z,52.93
2018-02-12T05:41:01.677Z,54.37
2018-02-12T05:43:29.154Z,54.07
2018-02-12T05:45:56.636Z,51.80
2018-02-12T05:48:24.893Z,62.53
2018-02-12T05:50:52.366Z,65.63
2018-02-12T05:53:19.831Z,59.57
2018-02-12T05:55:48.090Z,55.70
2018-02-12T05:58:15.563Z,65.13
2018-02-12T06:00:44.694Z,60.87
2018-02-12T06:03:14.502Z,56.70
2018-02-12T06:05:43.627Z,59.27
2018-02-12T06:08:12.747Z,66.63
2018-02-12T06:10:41.893Z,69.03
2018-02-12T06:13:11.048Z,63.03
2018-02-12T06:15:40.221Z,54.67
2018-02-12T06:18:07.762Z,61.23
2018-02-12T06:20:35.239Z,63.10
2018-02-12T06:23:02.803Z,60.70
2018-02-12T06:25:30.280Z,62.57
2018-02-12T06:27:57.816Z,60.17
2018-02-12T06:30:25.312Z,66.77
2018-02-12T06:32:53.561Z,67.83
2018-02-12T06:35:21.036Z,61.93
2018-02-12T06:37:48.560Z,61.40
2018-02-12T06:40:16.067Z,58.73
2018-02-12T06:42:44.307Z,57.27
2018-02-12T06:45:11.932Z,63.93
2018-02-12T06:47:39.412Z,62.50
2018-02-12T06:50:07.668Z,61.10
2018-02-12T06:52:35.156Z,72.03
2018-02-12T06:55:02.634Z,60.27
2018-02-12T06:57:30.108Z,59.03
2018-02-12T06:59:57.604Z,65.87
2018-02-12T07:02:25.080Z,62.13
2018-02-12T07:04:52.604Z,62.13
2018-02-12T07:07:20.121Z,67.20
2018-02-12T07:09:47.625Z,59.07
2018-02-12T07:12:15.860Z,60.80
2018-02-12T07:14:43.350Z,59.73
2018-02-12T07:17:10.836Z,60.93
2018-02-12T07:19:38.308Z,60.47
2018-02-12T07:22:05.804Z,62.20
2018-02-12T07:24:33.285Z,57.90
2018-02-12T07:27:00.777Z,66.23
2018-02-12T07:29:28.278Z,63.37
2018-02-12T07:31:55.752Z,59.60
2018-02-12T07:34:23.256Z,52.70
2018-02-12T07:36:51.503Z,58.00
2018-02-12T07:39:19.776Z,55.53
2018-02-12T07:41:47.247Z,62.40
2018-02-12T07:44:15.512Z,62.83
2018-02-12T07:46:43.809Z,63.47
2018-02-12T07:49:12.048Z,55.83
2018-02-12T07:51:39.560Z,55.70
2018-02-12T07:54:07.078Z,68.33
2018-02-12T07:56:34.520Z,62.00
2018-02-12T07:59:02.012Z,61.93
2018-02-12T08:01:30.254Z,65.57
2018-02-12T08:03:57.737Z,69.03
2018-02-12T08:06:26.052Z,68.50
2018-02-12T08:08:53.551Z,67.57
2018-02-12T08:11:21.088Z,84.70
2018-02-12T08:13:48.580Z,77.37
2018-02-12T08:16:16.069Z,62.03
2018-02-12T08:18:43.757Z,73.87
2018-02-12T08:21:11.223Z,68.63
2018-02-12T08:23:38.763Z,67.57
2018-02-12T08:26:07.593Z,71.67
2018-02-12T08:28:35.081Z,75.67
2018-02-12T08:31:02.582Z,74.17
2018-02-12T08:33:30.151Z,253.37
2018-02-12T08:35:57.641Z,78.47
2018-02-12T08:38:25.143Z,72.63
2018-02-12T08:40:53.391Z,83.83
2018-02-12T08:43:20.897Z,84.43
2018-02-12T08:45:48.372Z,78.73
2018-02-12T08:48:15.848Z,76.30
2018-02-12T08:50:44.462Z,72.87
2018-02-12T08:53:12.722Z,78.53
2018-02-12T08:55:41.367Z,69.67
2018-02-12T08:58:08.843Z,85.90
2018-02-12T09:00:36.321Z,78.77
2018-02-12T09:03:03.815Z,72.97
2018-02-12T09:05:32.052Z,78.80
2018-02-12T09:08:00.672Z,84.43
2018-02-12T09:10:28.978Z,83.77
2018-02-12T09:12:56.460Z,85.70
2018-02-12T09:15:23.938Z,77.23
2018-02-12T09:17:52.204Z,88.40
2018-02-12T09:20:19.675Z,79.43
2018-02-12T09:22:47.160Z,82.50
2018-02-12T09:25:15.431Z,87.80
2018-02-12T09:27:43.674Z,77.50
2018-02-12T09:30:11.157Z,78.30
2018-02-12T09:32:39.788Z,89.23
2018-02-12T09:35:08.401Z,90.63
2018-02-12T09:37:35.898Z,93.00
2018-02-12T09:40:04.166Z,94.90
2018-02-12T09:42:32.418Z,85.93
2018-02-12T09:44:59.917Z,97.10
2018-02-12T09:47:28.156Z,78.93
2018-02-12T09:49:55.629Z,82.90
2018-02-12T09:52:23.124Z,78.03
2018-02-12T09:54:53.365Z,78.53
2018-02-12T09:57:22.380Z,86.07
2018-02-12T09:59:51.390Z,86.23
2018-02-12T10:02:22.000Z,85.23
2018-02-12T10:04:51.712Z,75.13
2018-02-12T10:07:21.049Z,83.03
2018-02-12T10:09:52.398Z,77.07
2018-02-12T10:12:19.908Z,76.67
2018-02-12T10:14:47.399Z,72.23
2018-02-12T10:17:15.005Z,66.13
2018-02-12T10:19:43.258Z,70.20
2018-02-12T10:22:10.751Z,76.23
2018-02-12T10:24:38.248Z,117.57
2018-02-12T10:27:05.848Z,67.43
2018-02-12T10:29:34.097Z,66.90
2018-02-12T10:32:01.605Z,78.87
2018-02-12T10:34:29.095Z,56.90
2018-02-12T10:36:56.573Z,169.53
2018-02-12T10:39:24.071Z,50.33
2018-02-12T10:41:52.377Z,55.67
2018-02-12T10:44:19.845Z,51.30
2018-02-12T10:46:47.360Z,53.90
2018-02-12T10:49:15.844Z,48.10
2018-02-12T10:51:44.079Z,45.20
2018-02-12T10:54:11.559Z,47.33
2018-02-12T10:56:39.071Z,48.60
2018-02-12T10:59:07.312Z,53.93
2018-02-12T11:01:35.548Z,54.60
2018-02-12T11:04:03.029Z,56.30
2018-02-12T11:06:30.537Z,55.40
2018-02-12T11:08:58.020Z,60.87
2018-02-12T11:11:25.516Z,60.00
2018-02-12T11:13:53.084Z,63.43
2018-02-12T11:16:21.334Z,69.20
2018-02-12T11:18:49.961Z,64.90
2018-02-12T11:21:17.448Z,57.53
2018-02-12T11:23:44.924Z,57.00
2018-02-12T11:26:12.418Z,53.93
2018-02-12T11:28:39.894Z,52.07
2018-02-12T11:31:08.912Z,55.30
2018-02-12T11:33:36.400Z,52.03
2018-02-12T11:36:03.969Z,56.03
2018-02-12T11:38:31.463Z,46.70
2018-02-12T11:40:59.702Z,51.10
2018-02-12T11:43:27.172Z,50.47
2018-02-12T11:45:54.669Z,46.97
2018-02-12T11:48:22.989Z,48.20
2018-02-12T11:50:50.520Z,44.47
2018-02-12T11:53:17.976Z,46.87
2018-02-12T11:55:46.655Z,40.37
2018-02-12T11:58:14.101Z,38.63
2018-02-12T12:00:42.358Z,42.43
2018-02-12T12:03:09.840Z,42.37
2018-02-12T12:05:38.077Z,39.70
2018-02-12T12:08:05.584Z,47.40
2018-02-12T12:10:33.056Z,37.00
2018-02-12T12:13:00.553Z,37.97
2018-02-12T12:15:28.047Z,33.27
2018-02-12T12:17:56.288Z,33.73
2018-02-12T12:20:23.783Z,37.70
2018-02-12T12:22:52.024Z,39.10
2018-02-12T12:25:20.638Z,32.57
2018-02-12T12:27:48.910Z,35.20
2018-02-12T12:30:16.387Z,29.47
2018-02-12T12:32:43.898Z,31.20
2018-02-12T12:35:11.376Z,31.97
2018-02-12T12:37:39.634Z,34.23
2018-02-12T12:40:07.125Z,29.30
2018-02-12T12:42:35.374Z,35.90
2018-02-12T12:45:02.859Z,34.40
2018-02-12T12:47:31.119Z,34.93
2018-02-12T12:49:59.744Z,35.37
2018-02-12T12:52:27.975Z,34.07
2018-02-12T12:54:55.465Z,37.93
2018-02-12T12:57:24.088Z,30.20
2018-02-12T12:59:51.606Z,29.00
2018-02-12T13:02:20.222Z,26.67
2018-02-12T13:04:47.707Z,28.47
2018-02-12T13:07:15.201Z,30.03
2018-02-12T13:09:42.719Z,33.07
2018-02-12T13:12:10.194Z,32.13
2018-02-12T13:14:37.688Z,31.20
2018-02-12T13:17:05.997Z,40.10
2018-02-12T13:19:33.495Z,33.07
2018-02-12T13:22:01.009Z,36.10
2018-02-12T13:24:28.487Z,35.27
2018-02-12T13:26:55.962Z,37.30
2018-02-12T13:29:23.460Z,33.30
2018-02-12T13:31:51.700Z,36.83
2018-02-12T13:34:19.180Z,39.77
2018-02-12T13:36:46.688Z,33.90
2018-02-12T13:39:14.160Z,33.17
2018-02-12T13:41:41.682Z,36.57
2018-02-12T13:44:09.188Z,35.27
2018-02-12T13:46:36.661Z,36.83
2018-02-12T13:49:04.129Z,37.73
2018-02-12T13:51:31.616Z,36.13
2018-02-12T13:53:59.852Z,32.90
2018-02-12T13:56:27.390Z,34.40
2018-02-12T13:58:54.854Z,34.13
2018-02-12T14:01:22.325Z,30.83
2018-02-12T14:03:49.824Z,30.53
2018-02-12T14:06:18.272Z,34.93
2018-02-12T14:08:45.768Z,36.77
2018-02-12T14:11:14.044Z,38.60
2018-02-12T14:13:42.296Z,38.27
2018-02-12T14:16:10.547Z,40.87
2018-02-12T14:18:38.059Z,35.87
2018-02-12T14:21:06.093Z,32.83
2018-02-12T14:23:33.766Z,36.10
2018-02-12T14:26:03.243Z,37.60
2018-02-12T14:28:31.074Z,39.83
2018-02-12T14:30:59.171Z,42.13
2018-02-12T14:33:27.413Z,40.67
2018-02-12T14:35:55.046Z,41.40
2018-02-12T14:38:22.714Z,32.93
2018-02-12T14:40:50.506Z,36.57
2018-02-12T14:43:18.223Z,36.80
2018-02-12T14:45:45.962Z,34.43
2018-02-12T14:48:15.084Z,38.27
2018-02-12T14:50:43.409Z,36.33
2018-02-12T14:53:14.531Z,40.27
2018-02-12T14:55:43.110Z,45.27
2018-02-12T14:58:11.791Z,37.87
2018-02-12T15:00:42.322Z,34.30
2018-02-12T15:03:11.274Z,34.33
2018-02-12T15:05:40.255Z,37.03
2018-02-12T15:08:08.937Z,34.40
2018-02-12T15:10:36.754Z,35.60
2018-02-12T15:13:04.735Z,34.80
2018-02-12T15:15:32.770Z,31.33
2018-02-12T15:18:00.860Z,32.53
2018-02-12T15:20:28.750Z,44.83
2018-02-12T15:22:56.515Z,38.87
2018-02-12T15:25:24.511Z,33.10
2018-02-12T15:27:52.285Z,33.57
2018-02-12T15:30:21.628Z,35.10
2018-02-12T15:32:49.426Z,37.43
2018-02-12T15:35:18.581Z,34.23
2018-02-12T15:37:46.228Z,38.23
2018-02-12T15:40:15.680Z,35.63
2018-02-12T15:42:43.361Z,34.70
2018-02-12T15:45:17.583Z,34.07
2018-02-12T15:47:45.743Z,37.60
2018-02-12T15:50:13.529Z,34.30
2018-02-12T15:52:42.057Z,41.60
2018-02-12T15:55:10.098Z,36.00
2018-02-12T15:57:38.433Z,34.50
2018-02-12T16:00:06.047Z,39.03
2018-02-12T16:02:34.592Z,35.97
2018-02-12T16:05:02.763Z,39.27
2018-02-12T16:07:32.542Z,42.93
2018-02-12T16:10:01.155Z,43.70
2018-02-12T16:12:30.136Z,37.07
2018-02-12T16:14:58.106Z,44.50
2018-02-12T16:17:25.924Z,42.90
2018-02-12T16:19:54.253Z,47.33
2018-02-12T16:22:21.800Z,38.77
2018-02-12T16:24:49.579Z,47.60
2018-02-12T16:27:17.842Z,50.23
2018-02-12T16:29:45.562Z,51.87
2018-02-12T16:32:14.411Z,52.77
2018-02-12T16:34:42.386Z,53.53
2018-02-12T16:37:12.037Z,48.83
2018-02-12T16:39:40.194Z,53.73
2018-02-12T16:42:08.992Z,44.90
2018-02-12T16:44:38.107Z,43.60
2018-02-12T16:47:07.510Z,43.50
2018-02-12T16:49:35.076Z,49.87
2018-02-12T16:52:04.392Z,46.17
2018-02-12T16:54:33.136Z,51.40
2018-02-12T16:57:01.069Z,43.07
2018-02-12T16:59:29.862Z,43.77
2018-02-12T17:02:05.122Z,39.63
2018-02-12T17:04:32.955Z,40.23
2018-02-12T17:07:00.631Z,39.87
2018-02-12T17:09:28.360Z,33.83
2018-02-12T17:11:57.350Z,39.83
2018-02-12T17:14:26.634Z,33.03
2018-02-12T17:16:56.114Z,35.60
2018-02-12T17:19:24.542Z,36.70
2018-02-12T17:21:53.824Z,35.07
2018-02-12T17:24:21.654Z,36.50
2018-02-12T17:26:49.360Z,35.57
2018-02-12T17:29:17.962Z,36.50
2018-02-12T17:31:46.392Z,40.87
2018-02-12T17:34:15.556Z,40.03
2018-02-12T17:36:43.310Z,41.53
2018-02-12T17:39:10.857Z,44.37
2018-02-12T17:41:39.287Z,49.50
2018-02-12T17:44:06.990Z,47.97
2018-02-12T17:46:35.364Z,47.00
2018-02-12T17:49:03.202Z,57.10
2018-02-12T17:51:30.906Z,51.83
2018-02-12T17:53:59.355Z,52.10
2018-02-12T17:56:26.919Z,57.10
2018-02-12T17:58:54.508Z,67.90
2018-02-12T18:01:22.167Z,57.63
2018-02-12T18:03:49.842Z,61.10
2018-02-12T18:06:17.570Z,54.07
2018-02-12T18:08:45.208Z,58.93
2018-02-12T18:11:13.503Z,58.10
2018-02-12T18:13:41.453Z,57.83
2018-02-12T18:16:09.017Z,57.83
2018-02-12T18:18:36.641Z,57.57
2018-02-12T18:21:05.151Z,53.27
2018-02-12T18:23:32.847Z,60.20
2018-02-12T18:26:00.672Z,60.60
2018-02-12T18:28:28.199Z,60.90
2018-02-12T18:30:56.588Z,67.33
2018-02-12T18:33:25.102Z,57.43
2018-02-12T18:35:52.734Z,54.80
2018-02-12T18:38:20.535Z,58.97
2018-02-12T18:40:48.170Z,54.53
2018-02-12T18:43:15.774Z,57.30
2018-02-12T18:45:43.274Z,57.97
2018-02-12T18:48:11.635Z,64.97
2018-02-12T18:50:39.354Z,55.60
2018-02-12T18:53:06.850Z,49.80
2018-02-12T18:55:34.356Z,56.00
2018-02-12T18:58:01.841Z,52.03
2018-02-12T19:00:29.343Z,58.00
2018-02-12T19:02:56.836Z,58.80
2018-02-12T19:05:24.321Z,64.00
2018-02-12T19:07:51.858Z,51.60
2018-02-12T19:10:19.394Z,48.63
2018-02-12T19:12:47.655Z,58.83
2018-02-12T19:15:15.202Z,51.43
2018-02-12T19:17:43.291Z,50.67
2018-02-12T19:20:12.575Z,51.90
2018-02-12T19:22:40.880Z,54.80
2018-02-12T19:25:09.919Z,53.40
2018-02-12T19:27:37.437Z,48.03
2018-02-12T19:30:05.767Z,54.03
2018-02-12T19:32:34.703Z,50.53
2018-02-12T19:35:02.963Z,50.83
2018-02-12T19:37:30.536Z,51.63
2018-02-12T19:39:58.831Z,51.40
2018-02-12T19:42:27.599Z,53.67
2018-02-12T19:44:55.884Z,49.07
2018-02-12T19:47:23.508Z,48.67
2018-02-12T19:49:51.200Z,56.30
2018-02-12T19:54:59.271Z,54.50
2018-02-12T19:57:27.006Z,52.80
2018-02-12T19:59:55.388Z,53.87
2018-02-12T20:02:26.975Z,70.23
2018-02-12T20:04:55.578Z,66.00
2018-02-12T20:07:23.388Z,60.07
2018-02-12T20:12:33.909Z,54.30
2018-02-12T20:15:01.540Z,62.63
2018-02-12T20:17:29.939Z,54.00
2018-02-12T20:19:57.595Z,59.47
2018-02-12T20:22:25.088Z,58.93
2018-02-12T20:24:52.658Z,51.77
2018-02-12T20:27:20.348Z,53.43
2018-02-12T20:29:47.840Z,55.67
2018-02-12T20:32:16.318Z,46.60
2018-02-12T20:34:43.903Z,47.37
2018-02-12T20:37:12.269Z,41.17
2018-02-12T20:39:39.761Z,43.60
2018-02-12T20:42:07.383Z,33.77
2018-02-12T20:44:35.138Z,30.63
2018-02-12T20:47:03.382Z,26.47
2018-02-12T20:49:30.902Z,31.53
2018-02-12T20:51:58.377Z,31.30
2018-02-12T20:54:25.867Z,26.73
2018-02-12T20:56:53.388Z,28.90
2018-02-12T20:59:20.889Z,29.20
2018-02-12T21:01:48.429Z,21.83
2018-02-12T21:04:15.936Z,29.90
2018-02-12T21:06:44.175Z,26.73
2018-02-12T21:09:11.661Z,21.70
2018-02-12T21:11:40.009Z,27.93
2018-02-12T21:14:07.487Z,33.30
2018-02-12T21:16:35.047Z,33.40
2018-02-12T21:19:02.565Z,36.40
2018-02-12T21:21:30.038Z,50.73
2018-02-12T21:23:57.570Z,48.40
2018-02-12T21:26:25.104Z,58.97
2018-02-12T21:28:53.464Z,54.90
2018-02-12T21:31:21.148Z,64.47
2018-02-12T21:33:48.652Z,57.03
2018-02-12T21:36:16.127Z,61.73
2018-02-12T21:38:43.625Z,64.40
2018-02-12T21:41:11.889Z,67.40
2018-02-12T21:43:40.134Z,61.27
2018-02-12T21:46:07.607Z,59.60
2018-02-12T21:48:35.096Z,55.03
2018-02-12T21:51:03.334Z,57.37
2018-02-12T21:53:30.805Z,39.07
2018-02-12T21:55:58.287Z,36.50
2018-02-12T21:58:26.532Z,18.60
2018-02-12T22:00:54.024Z,14.60
2018-02-12T22:03:22.278Z,17.53
2018-02-12T22:05:49.747Z,7.70
2018-02-12T22:08:17.236Z,12.20
2018-02-12T22:10:44.712Z,12.70
2018-02-12T22:13:12.196Z,5.53
2018-02-12T22:15:39.696Z,6.90
2018-02-12T22:18:07.938Z,6.83
2018-02-12T22:20:35.416Z,4.63
2018-02-12T22:23:02.906Z,7.60
2018-02-12T22:25:31.276Z,8.30
2018-02-12T22:27:59.516Z,5.33
2018-02-12T22:30:27.001Z,5.70
2018-02-12T22:32:55.242Z,2.60
2018-02-12T22:35:22.729Z,3.50
2018-02-12T22:37:51.034Z,4.47
2018-02-12T22:40:18.471Z,13.40
2018-02-12T22:42:46.739Z,6.60
2018-02-12T22:45:14.244Z,6.07
2018-02-12T22:47:41.731Z,7.47
2018-02-12T22:50:09.199Z,4.80
2018-02-12T22:52:36.780Z,5.80
2018-02-12T22:55:05.018Z,5.77
2018-02-12T22:57:32.489Z,15.03
2018-02-12T22:59:59.988Z,13.40
2018-02-12T23:02:28.220Z,7.13
2018-02-12T23:04:55.692Z,3.30
2018-02-12T23:07:23.176Z,3.77
2018-02-12T23:09:51.431Z,5.27
2018-02-12T23:12:18.906Z,4.23
2018-02-12T23:14:47.167Z,9.10
2018-02-12T23:17:16.236Z,4.73
2018-02-12T23:19:43.712Z,2.60
2018-02-12T23:22:11.194Z,8.67
2018-02-12T23:24:38.660Z,2.30
2018-02-12T23:27:06.883Z,4.20
2018-02-12T23:29:34.384Z,5.03
2018-02-12T23:32:01.958Z,7.83
2018-02-12T23:34:30.187Z,4.13
2018-02-12T23:36:57.676Z,5.13
2018-02-12T23:39:25.148Z,3.07
2018-02-12T23:41:53.420Z,5.20
2018-02-12T23:44:20.917Z,13.40
2018-02-12T23:46:48.400Z,42.87
2018-02-12T23:49:15.873Z,12.73
2018-02-12T23:51:43.355Z,3.10
2018-02-12T23:54:23.281Z,3.30
2018-02-12T23:56:50.762Z,2.83
2018-02-12T23:59:18.228Z,4.60
